Washburn, Missouri
Current Conditions -  °F | °C
As of 7:57 AM on Friday 31 Oct 2014 (Local Time) from KROG Reporting Station
Overcast Overcast  
Wind Chill: 41°   Ceiling: 2000
Heat Index: 45°   Visibility: 10mi
Dew Point: 39°   Wind: 8mph
Humidity: 80%   Direction: 350°N
Pressure: 30.27"   Gusts: NA
Location:  36.59°N, 93.97°W
Report Text: KROG 311257Z 35007KT 10SM OVC020 07/04 A3027 RMK AO2 SLP250 T00720039 $
Loading
Personal Weather Stations






























Interactive Weather Map
Tropical Storm Tracking
New forecast layout! Learn more

10-Day Weather Forecast

Advertisements
Track Severe Weather on mobile